sensor_id;sensor_type;location;lat;lon;timestamp;P1;durP1;ratioP1;P2;durP2;ratioP2
15049;SDS011;7622;42.724;23.250;2023-10-13T00:00:30;6.53;;;6.00;;
15049;SDS011;7622;42.724;23.250;2023-10-13T00:03:21;10.00;;;7.13;;
15049;SDS011;7622;42.724;23.250;2023-10-13T00:06:08;9.03;;;6.60;;
15049;SDS011;7622;42.724;23.250;2023-10-13T00:08:56;8.60;;;6.53;;
15049;SDS011;7622;42.724;23.250;2023-10-13T00:11:43;9.93;;;6.57;;
15049;SDS011;7622;42.724;23.250;2023-10-13T00:14:32;9.00;;;7.20;;
15049;SDS011;7622;42.724;23.250;2023-10-13T00:17:20;12.47;;;7.37;;
15049;SDS011;7622;42.724;23.250;2023-10-13T00:20:10;8.00;;;6.80;;
15049;SDS011;7622;42.724;23.250;2023-10-13T00:23:19;11.20;;;7.23;;
15049;SDS011;7622;42.724;23.250;2023-10-13T00:26:07;9.57;;;6.77;;
15049;SDS011;7622;42.724;23.250;2023-10-13T00:28:55;8.47;;;6.73;;
15049;SDS011;7622;42.724;23.250;2023-10-13T00:31:53;14.83;;;7.67;;
15049;SDS011;7622;42.724;23.250;2023-10-13T00:34:42;15.10;;;8.30;;
15049;SDS011;7622;42.724;23.250;2023-10-13T00:37:29;12.10;;;7.47;;
15049;SDS011;7622;42.724;23.250;2023-10-13T00:40:28;15.37;;;8.13;;
15049;SDS011;7622;42.724;23.250;2023-10-13T00:43:35;10.87;;;7.80;;
15049;SDS011;7622;42.724;23.250;2023-10-13T00:46:49;10.23;;;7.17;;
15049;SDS011;7622;42.724;23.250;2023-10-13T00:49:41;15.07;;;6.93;;
15049;SDS011;7622;42.724;23.250;2023-10-13T00:52:33;11.90;;;7.50;;
15049;SDS011;7622;42.724;23.250;2023-10-13T00:55:22;12.40;;;7.80;;
15049;SDS011;7622;42.724;23.250;2023-10-13T00:58:12;13.27;;;7.63;;
15049;SDS011;7622;42.724;23.250;2023-10-13T01:01:00;10.67;;;7.07;;
15049;SDS011;7622;42.724;23.250;2023-10-13T01:04:02;11.77;;;7.07;;
15049;SDS011;7622;42.724;23.250;2023-10-13T01:06:55;10.37;;;6.60;;
15049;SDS011;7622;42.724;23.250;2023-10-13T01:09:41;14.47;;;7.10;;
15049;SDS011;7622;42.724;23.250;2023-10-13T01:12:28;7.77;;;7.00;;
15049;SDS011;7622;42.724;23.250;2023-10-13T01:15:17;8.40;;;7.20;;
15049;SDS011;7622;42.724;23.250;2023-10-13T01:18:06;10.47;;;6.93;;
15049;SDS011;7622;42.724;23.250;2023-10-13T01:20:56;8.27;;;6.60;;
15049;SDS011;7622;42.724;23.250;2023-10-13T01:23:46;11.53;;;6.97;;
15049;SDS011;7622;42.724;23.250;2023-10-13T01:26:34;8.30;;;7.33;;
15049;SDS011;7622;42.724;23.250;2023-10-13T01:29:24;11.33;;;7.27;;
15049;SDS011;7622;42.724;23.250;2023-10-13T01:32:14;9.03;;;6.50;;
15049;SDS011;7622;42.724;23.250;2023-10-13T01:35:02;8.90;;;7.10;;
15049;SDS011;7622;42.724;23.250;2023-10-13T01:37:51;16.47;;;7.67;;
15049;SDS011;7622;42.724;23.250;2023-10-13T01:40:40;18.80;;;6.97;;
15049;SDS011;7622;42.724;23.250;2023-10-13T01:43:28;10.17;;;7.20;;
15049;SDS011;7622;42.724;23.250;2023-10-13T01:46:15;7.83;;;6.83;;
15049;SDS011;7622;42.724;23.250;2023-10-13T01:49:04;9.90;;;6.93;;
15049;SDS011;7622;42.724;23.250;2023-10-13T01:51:53;8.87;;;7.37;;
15049;SDS011;7622;42.724;23.250;2023-10-13T01:54:40;9.10;;;7.07;;
15049;SDS011;7622;42.724;23.250;2023-10-13T01:57:27;22.17;;;7.37;;
15049;SDS011;7622;42.724;23.250;2023-10-13T02:00:15;14.00;;;7.23;;
15049;SDS011;7622;42.724;23.250;2023-10-13T02:03:04;12.50;;;6.83;;
15049;SDS011;7622;42.724;23.250;2023-10-13T02:05:52;9.73;;;7.30;;
15049;SDS011;7622;42.724;23.250;2023-10-13T02:08:42;9.00;;;6.90;;
15049;SDS011;7622;42.724;23.250;2023-10-13T02:11:33;24.83;;;7.57;;
15049;SDS011;7622;42.724;23.250;2023-10-13T02:14:20;9.20;;;7.83;;
15049;SDS011;7622;42.724;23.250;2023-10-13T02:17:08;11.87;;;7.70;;
15049;SDS011;7622;42.724;23.250;2023-10-13T02:19:57;8.80;;;7.33;;
15049;SDS011;7622;42.724;23.250;2023-10-13T02:22:53;10.70;;;7.10;;
15049;SDS011;7622;42.724;23.250;2023-10-13T02:25:40;8.10;;;6.37;;
15049;SDS011;7622;42.724;23.250;2023-10-13T02:28:31;8.37;;;6.93;;
15049;SDS011;7622;42.724;23.250;2023-10-13T02:31:21;9.20;;;7.23;;
15049;SDS011;7622;42.724;23.250;2023-10-13T02:34:09;9.83;;;7.20;;
15049;SDS011;7622;42.724;23.250;2023-10-13T02:36:59;13.73;;;7.43;;
15049;SDS011;7622;42.724;23.250;2023-10-13T02:39:45;9.77;;;7.67;;
15049;SDS011;7622;42.724;23.250;2023-10-13T02:42:32;9.20;;;7.37;;
15049;SDS011;7622;42.724;23.250;2023-10-13T02:45:18;10.60;;;7.67;;
15049;SDS011;7622;42.724;23.250;2023-10-13T02:48:08;9.33;;;6.97;;
15049;SDS011;7622;42.724;23.250;2023-10-13T02:50:59;8.60;;;7.77;;
15049;SDS011;7622;42.724;23.250;2023-10-13T02:53:51;10.20;;;6.90;;
15049;SDS011;7622;42.724;23.250;2023-10-13T02:56:38;10.60;;;7.23;;
15049;SDS011;7622;42.724;23.250;2023-10-13T02:59:34;14.47;;;7.80;;
15049;SDS011;7622;42.724;23.250;2023-10-13T03:02:24;13.90;;;7.23;;
15049;SDS011;7622;42.724;23.250;2023-10-13T03:05:15;9.27;;;7.30;;
15049;SDS011;7622;42.724;23.250;2023-10-13T03:08:01;14.63;;;7.90;;
15049;SDS011;7622;42.724;23.250;2023-10-13T03:10:49;8.87;;;7.80;;
15049;SDS011;7622;42.724;23.250;2023-10-13T03:13:39;11.73;;;7.57;;
15049;SDS011;7622;42.724;23.250;2023-10-13T03:16:30;13.23;;;8.60;;
15049;SDS011;7622;42.724;23.250;2023-10-13T03:19:17;13.17;;;8.33;;
15049;SDS011;7622;42.724;23.250;2023-10-13T03:22:08;10.93;;;7.83;;
15049;SDS011;7622;42.724;23.250;2023-10-13T03:24:57;14.60;;;8.17;;
15049;SDS011;7622;42.724;23.250;2023-10-13T03:27:50;12.23;;;7.80;;
15049;SDS011;7622;42.724;23.250;2023-10-13T03:30:50;11.23;;;7.67;;
15049;SDS011;7622;42.724;23.250;2023-10-13T03:33:38;9.70;;;7.70;;
15049;SDS011;7622;42.724;23.250;2023-10-13T03:36:30;12.53;;;7.60;;
15049;SDS011;7622;42.724;23.250;2023-10-13T03:39:36;12.90;;;7.90;;
15049;SDS011;7622;42.724;23.250;2023-10-13T03:42:23;12.60;;;7.63;;
15049;SDS011;7622;42.724;23.250;2023-10-13T03:45:10;13.97;;;8.00;;
15049;SDS011;7622;42.724;23.250;2023-10-13T03:47:57;11.10;;;7.13;;
15049;SDS011;7622;42.724;23.250;2023-10-13T03:50:45;13.50;;;8.23;;
15049;SDS011;7622;42.724;23.250;2023-10-13T03:53:34;10.13;;;8.23;;
15049;SDS011;7622;42.724;23.250;2023-10-13T03:56:26;10.50;;;8.10;;
15049;SDS011;7622;42.724;23.250;2023-10-13T03:59:24;11.77;;;8.67;;
15049;SDS011;7622;42.724;23.250;2023-10-13T04:02:20;19.43;;;8.23;;
15049;SDS011;7622;42.724;23.250;2023-10-13T04:05:07;11.47;;;8.30;;
15049;SDS011;7622;42.724;23.250;2023-10-13T04:08:01;17.93;;;8.47;;
15049;SDS011;7622;42.724;23.250;2023-10-13T04:11:06;15.13;;;8.87;;
15049;SDS011;7622;42.724;23.250;2023-10-13T04:14:11;13.60;;;8.37;;
15049;SDS011;7622;42.724;23.250;2023-10-13T04:17:09;13.50;;;8.10;;
15049;SDS011;7622;42.724;23.250;2023-10-13T04:20:01;14.93;;;7.90;;
15049;SDS011;7622;42.724;23.250;2023-10-13T04:23:12;13.20;;;7.93;;
15049;SDS011;7622;42.724;23.250;2023-10-13T04:26:11;10.80;;;8.30;;
15049;SDS011;7622;42.724;23.250;2023-10-13T04:29:06;13.77;;;9.07;;
15049;SDS011;7622;42.724;23.250;2023-10-13T04:32:14;20.93;;;11.17;;
15049;SDS011;7622;42.724;23.250;2023-10-13T04:35:13;18.87;;;9.40;;
15049;SDS011;7622;42.724;23.250;2023-10-13T04:38:04;13.87;;;9.90;;
15049;SDS011;7622;42.724;23.250;2023-10-13T04:41:06;12.43;;;9.80;;
15049;SDS011;7622;42.724;23.250;2023-10-13T04:44:07;27.63;;;11.53;;
15049;SDS011;7622;42.724;23.250;2023-10-13T04:47:07;32.57;;;11.63;;
15049;SDS011;7622;42.724;23.250;2023-10-13T04:49:54;29.00;;;10.33;;
15049;SDS011;7622;42.724;23.250;2023-10-13T04:52:46;25.90;;;11.53;;
15049;SDS011;7622;42.724;23.250;2023-10-13T04:55:49;27.23;;;9.40;;
15049;SDS011;7622;42.724;23.250;2023-10-13T04:58:54;17.47;;;10.93;;
15049;SDS011;7622;42.724;23.250;2023-10-13T05:01:59;24.57;;;9.67;;
15049;SDS011;7622;42.724;23.250;2023-10-13T05:05:07;14.70;;;8.83;;
15049;SDS011;7622;42.724;23.250;2023-10-13T05:08:28;20.43;;;8.00;;
15049;SDS011;7622;42.724;23.250;2023-10-13T05:11:32;23.10;;;8.80;;
15049;SDS011;7622;42.724;23.250;2023-10-13T05:14:37;26.30;;;9.50;;
15049;SDS011;7622;42.724;23.250;2023-10-13T05:17:42;17.63;;;7.23;;
15049;SDS011;7622;42.724;23.250;2023-10-13T05:20:47;17.40;;;8.30;;
15049;SDS011;7622;42.724;23.250;2023-10-13T05:23:52;16.23;;;7.40;;
15049;SDS011;7622;42.724;23.250;2023-10-13T05:26:56;13.77;;;6.80;;
15049;SDS011;7622;42.724;23.250;2023-10-13T05:30:15;33.87;;;18.77;;
15049;SDS011;7622;42.724;23.250;2023-10-13T05:33:21;20.03;;;12.40;;
15049;SDS011;7622;42.724;23.250;2023-10-13T05:36:41;22.37;;;13.50;;
15049;SDS011;7622;42.724;23.250;2023-10-13T05:39:45;20.13;;;10.57;;
15049;SDS011;7622;42.724;23.250;2023-10-13T05:42:50;15.17;;;8.97;;
15049;SDS011;7622;42.724;23.250;2023-10-13T05:45:55;18.70;;;8.63;;
15049;SDS011;7622;42.724;23.250;2023-10-13T05:49:05;9.10;;;6.70;;
15049;SDS011;7622;42.724;23.250;2023-10-13T05:52:16;12.53;;;7.33;;
15049;SDS011;7622;42.724;23.250;2023-10-13T05:55:05;12.80;;;6.87;;
15049;SDS011;7622;42.724;23.250;2023-10-13T05:58:10;9.57;;;6.73;;
15049;SDS011;7622;42.724;23.250;2023-10-13T06:01:14;17.27;;;7.40;;
15049;SDS011;7622;42.724;23.250;2023-10-13T06:04:19;13.07;;;7.27;;
15049;SDS011;7622;42.724;23.250;2023-10-13T06:07:24;12.00;;;7.40;;
15049;SDS011;7622;42.724;23.250;2023-10-13T06:10:29;17.13;;;7.73;;
15049;SDS011;7622;42.724;23.250;2023-10-13T06:13:33;13.33;;;8.40;;
15049;SDS011;7622;42.724;23.250;2023-10-13T06:16:37;22.10;;;8.43;;
15049;SDS011;7622;42.724;23.250;2023-10-13T06:19:42;12.20;;;8.33;;
15049;SDS011;7622;42.724;23.250;2023-10-13T06:22:48;15.73;;;8.13;;
15049;SDS011;7622;42.724;23.250;2023-10-13T06:25:53;19.07;;;7.63;;
15049;SDS011;7622;42.724;23.250;2023-10-13T06:28:57;16.23;;;8.37;;
15049;SDS011;7622;42.724;23.250;2023-10-13T06:31:47;13.80;;;7.90;;
15049;SDS011;7622;42.724;23.250;2023-10-13T06:34:34;13.20;;;7.50;;
15049;SDS011;7622;42.724;23.250;2023-10-13T06:37:30;12.27;;;8.50;;
15049;SDS011;7622;42.724;23.250;2023-10-13T06:40:19;12.87;;;7.83;;
15049;SDS011;7622;42.724;23.250;2023-10-13T06:43:11;16.10;;;8.80;;
15049;SDS011;7622;42.724;23.250;2023-10-13T06:46:01;17.00;;;8.03;;
15049;SDS011;7622;42.724;23.250;2023-10-13T06:48:49;14.83;;;8.13;;
15049;SDS011;7622;42.724;23.250;2023-10-13T06:51:38;10.63;;;8.33;;
15049;SDS011;7622;42.724;23.250;2023-10-13T06:54:25;10.60;;;8.83;;
15049;SDS011;7622;42.724;23.250;2023-10-13T06:57:15;24.20;;;9.30;;
15049;SDS011;7622;42.724;23.250;2023-10-13T07:00:06;14.93;;;9.20;;
15049;SDS011;7622;42.724;23.250;2023-10-13T07:02:57;14.40;;;9.73;;
15049;SDS011;7622;42.724;23.250;2023-10-13T07:05:52;15.43;;;10.47;;
15049;SDS011;7622;42.724;23.250;2023-10-13T07:08:39;15.00;;;9.90;;
15049;SDS011;7622;42.724;23.250;2023-10-13T07:11:26;13.33;;;9.53;;
15049;SDS011;7622;42.724;23.250;2023-10-13T07:14:21;15.10;;;9.93;;
15049;SDS011;7622;42.724;23.250;2023-10-13T07:17:08;15.27;;;10.93;;
15049;SDS011;7622;42.724;23.250;2023-10-13T07:19:56;16.80;;;10.23;;
15049;SDS011;7622;42.724;23.250;2023-10-13T07:22:52;14.47;;;10.10;;
15049;SDS011;7622;42.724;23.250;2023-10-13T07:25:52;18.93;;;10.37;;
15049;SDS011;7622;42.724;23.250;2023-10-13T07:28:45;13.67;;;9.70;;
15049;SDS011;7622;42.724;23.250;2023-10-13T07:31:34;20.17;;;11.47;;
15049;SDS011;7622;42.724;23.250;2023-10-13T07:34:23;23.33;;;10.67;;
15049;SDS011;7622;42.724;23.250;2023-10-13T07:37:11;20.30;;;11.20;;
15049;SDS011;7622;42.724;23.250;2023-10-13T07:40:01;14.60;;;11.50;;
15049;SDS011;7622;42.724;23.250;2023-10-13T07:42:57;22.20;;;12.23;;
15049;SDS011;7622;42.724;23.250;2023-10-13T07:45:46;18.27;;;11.20;;
15049;SDS011;7622;42.724;23.250;2023-10-13T07:48:45;17.57;;;11.30;;
15049;SDS011;7622;42.724;23.250;2023-10-13T07:51:32;16.43;;;11.60;;
15049;SDS011;7622;42.724;23.250;2023-10-13T07:54:22;23.53;;;12.50;;
15049;SDS011;7622;42.724;23.250;2023-10-13T07:57:09;16.97;;;11.87;;
15049;SDS011;7622;42.724;23.250;2023-10-13T08:00:00;17.87;;;11.67;;
15049;SDS011;7622;42.724;23.250;2023-10-13T08:02:56;23.77;;;12.33;;
15049;SDS011;7622;42.724;23.250;2023-10-13T08:05:54;19.63;;;11.90;;
15049;SDS011;7622;42.724;23.250;2023-10-13T08:08:50;18.53;;;12.63;;
15049;SDS011;7622;42.724;23.250;2023-10-13T08:11:39;17.97;;;12.10;;
15049;SDS011;7622;42.724;23.250;2023-10-13T08:14:26;20.10;;;12.77;;
15049;SDS011;7622;42.724;23.250;2023-10-13T08:17:14;25.13;;;13.50;;
15049;SDS011;7622;42.724;23.250;2023-10-13T08:20:02;17.13;;;13.80;;
15049;SDS011;7622;42.724;23.250;2023-10-13T08:22:59;22.27;;;13.47;;
15049;SDS011;7622;42.724;23.250;2023-10-13T08:25:58;22.53;;;13.73;;
15049;SDS011;7622;42.724;23.250;2023-10-13T08:29:15;16.00;;;12.17;;
15049;SDS011;7622;42.724;23.250;2023-10-13T08:32:19;30.63;;;13.47;;
15049;SDS011;7622;42.724;23.250;2023-10-13T08:35:21;28.70;;;12.77;;
15049;SDS011;7622;42.724;23.250;2023-10-13T08:38:21;19.40;;;13.33;;
15049;SDS011;7622;42.724;23.250;2023-10-13T08:41:14;23.57;;;13.07;;
15049;SDS011;7622;42.724;23.250;2023-10-13T08:44:16;30.43;;;12.97;;
15049;SDS011;7622;42.724;23.250;2023-10-13T08:47:17;17.20;;;12.73;;
15049;SDS011;7622;42.724;23.250;2023-10-13T08:50:10;23.23;;;12.03;;
15049;SDS011;7622;42.724;23.250;2023-10-13T08:53:17;23.90;;;13.53;;
15049;SDS011;7622;42.724;23.250;2023-10-13T08:56:14;23.20;;;12.43;;
15049;SDS011;7622;42.724;23.250;2023-10-13T08:59:03;18.70;;;12.07;;
15049;SDS011;7622;42.724;23.250;2023-10-13T09:01:53;19.30;;;12.00;;
15049;SDS011;7622;42.724;23.250;2023-10-13T09:05:01;27.03;;;12.17;;
15049;SDS011;7622;42.724;23.250;2023-10-13T09:07:55;21.63;;;11.10;;
15049;SDS011;7622;42.724;23.250;2023-10-13T09:10:57;19.73;;;10.23;;
15049;SDS011;7622;42.724;23.250;2023-10-13T09:13:52;18.08;;;9.82;;
15049;SDS011;7622;42.724;23.250;2023-10-13T09:16:40;20.23;;;10.23;;
15049;SDS011;7622;42.724;23.250;2023-10-13T09:19:52;20.77;;;10.63;;
15049;SDS011;7622;42.724;23.250;2023-10-13T09:22:42;22.48;;;10.40;;
15049;SDS011;7622;42.724;23.250;2023-10-13T09:25:28;15.80;;;9.40;;
15049;SDS011;7622;42.724;23.250;2023-10-13T09:28:20;14.13;;;9.27;;
15049;SDS011;7622;42.724;23.250;2023-10-13T09:31:11;11.38;;;8.10;;
15049;SDS011;7622;42.724;23.250;2023-10-13T09:33:59;15.10;;;8.80;;
15049;SDS011;7622;42.724;23.250;2023-10-13T09:36:48;12.23;;;8.88;;
15049;SDS011;7622;42.724;23.250;2023-10-13T09:39:40;14.73;;;8.98;;
15049;SDS011;7622;42.724;23.250;2023-10-13T09:42:34;12.77;;;7.60;;
15049;SDS011;7622;42.724;23.250;2023-10-13T09:45:24;13.63;;;8.63;;
15049;SDS011;7622;42.724;23.250;2023-10-13T09:48:16;10.63;;;7.97;;
15049;SDS011;7622;42.724;23.250;2023-10-13T09:51:12;36.67;;;8.55;;
15049;SDS011;7622;42.724;23.250;2023-10-13T09:54:06;8.85;;;7.07;;
15049;SDS011;7622;42.724;23.250;2023-10-13T09:56:57;11.43;;;7.55;;
15049;SDS011;7622;42.724;23.250;2023-10-13T09:59:57;10.70;;;7.28;;
15049;SDS011;7622;42.724;23.250;2023-10-13T10:03:01;15.27;;;7.40;;
15049;SDS011;7622;42.724;23.250;2023-10-13T10:05:57;8.32;;;6.75;;
15049;SDS011;7622;42.724;23.250;2023-10-13T10:08:51;15.07;;;7.50;;
15049;SDS011;7622;42.724;23.250;2023-10-13T10:11:50;7.38;;;6.30;;
15049;SDS011;7622;42.724;23.250;2023-10-13T10:15:04;7.97;;;6.85;;
15049;SDS011;7622;42.724;23.250;2023-10-13T10:17:56;8.18;;;6.07;;
15049;SDS011;7622;42.724;23.250;2023-10-13T10:20:43;6.82;;;5.45;;
15049;SDS011;7622;42.724;23.250;2023-10-13T10:23:33;6.55;;;5.32;;
15049;SDS011;7622;42.724;23.250;2023-10-13T10:26:25;6.13;;;5.03;;
15049;SDS011;7622;42.724;23.250;2023-10-13T10:29:15;11.05;;;5.43;;
15049;SDS011;7622;42.724;23.250;2023-10-13T10:32:11;10.45;;;6.78;;
15049;SDS011;7622;42.724;23.250;2023-10-13T10:35:03;7.65;;;5.45;;
15049;SDS011;7622;42.724;23.250;2023-10-13T10:38:07;20.23;;;5.60;;
15049;SDS011;7622;42.724;23.250;2023-10-13T10:41:02;6.47;;;5.28;;
15049;SDS011;7622;42.724;23.250;2023-10-13T10:43:50;9.73;;;4.78;;
15049;SDS011;7622;42.724;23.250;2023-10-13T10:46:38;9.38;;;4.53;;
15049;SDS011;7622;42.724;23.250;2023-10-13T10:49:28;5.05;;;4.55;;
15049;SDS011;7622;42.724;23.250;2023-10-13T10:52:16;7.93;;;4.43;;
15049;SDS011;7622;42.724;23.250;2023-10-13T10:55:05;12.48;;;4.95;;
15049;SDS011;7622;42.724;23.250;2023-10-13T10:57:59;8.45;;;4.68;;
15049;SDS011;7622;42.724;23.250;2023-10-13T11:00:49;7.90;;;5.07;;
15049;SDS011;7622;42.724;23.250;2023-10-13T11:03:53;8.27;;;4.90;;
15049;SDS011;7622;42.724;23.250;2023-10-13T11:06:44;7.85;;;4.90;;
15049;SDS011;7622;42.724;23.250;2023-10-13T11:09:32;6.38;;;4.72;;
15049;SDS011;7622;42.724;23.250;2023-10-13T11:12:23;6.32;;;4.30;;
15049;SDS011;7622;42.724;23.250;2023-10-13T11:15:13;4.93;;;4.32;;
15049;SDS011;7622;42.724;23.250;2023-10-13T11:18:07;7.22;;;4.82;;
15049;SDS011;7622;42.724;23.250;2023-10-13T11:20:59;8.70;;;4.18;;
15049;SDS011;7622;42.724;23.250;2023-10-13T11:23:54;5.75;;;3.85;;
15049;SDS011;7622;42.724;23.250;2023-10-13T11:26:42;4.65;;;3.00;;
15049;SDS011;7622;42.724;23.250;2023-10-13T11:29:34;6.35;;;3.10;;
15049;SDS011;7622;42.724;23.250;2023-10-13T11:32:26;4.00;;;2.17;;
15049;SDS011;7622;42.724;23.250;2023-10-13T11:35:14;3.58;;;2.20;;
15049;SDS011;7622;42.724;23.250;2023-10-13T11:38:05;3.85;;;2.50;;
15049;SDS011;7622;42.724;23.250;2023-10-13T11:40:59;7.07;;;2.60;;
15049;SDS011;7622;42.724;23.250;2023-10-13T11:43:57;11.35;;;3.72;;
15049;SDS011;7622;42.724;23.250;2023-10-13T11:47:09;5.55;;;2.63;;
15049;SDS011;7622;42.724;23.250;2023-10-13T11:50:14;15.10;;;3.30;;
15049;SDS011;7622;42.724;23.250;2023-10-13T11:53:17;4.47;;;3.08;;
15049;SDS011;7622;42.724;23.250;2023-10-13T11:56:05;5.95;;;2.78;;
15049;SDS011;7622;42.724;23.250;2023-10-13T11:58:54;3.40;;;2.60;;
15049;SDS011;7622;42.724;23.250;2023-10-13T12:01:46;4.25;;;2.72;;
15049;SDS011;7622;42.724;23.250;2023-10-13T12:04:52;3.17;;;2.72;;
15049;SDS011;7622;42.724;23.250;2023-10-13T12:07:43;7.38;;;3.15;;
15049;SDS011;7622;42.724;23.250;2023-10-13T12:10:34;5.45;;;3.08;;
15049;SDS011;7622;42.724;23.250;2023-10-13T12:13:34;4.75;;;2.92;;
15049;SDS011;7622;42.724;23.250;2023-10-13T12:16:24;4.63;;;3.35;;
15049;SDS011;7622;42.724;23.250;2023-10-13T12:19:20;4.40;;;2.97;;
15049;SDS011;7622;42.724;23.250;2023-10-13T12:22:09;3.72;;;2.90;;
15049;SDS011;7622;42.724;23.250;2023-10-13T12:25:03;11.55;;;3.42;;
15049;SDS011;7622;42.724;23.250;2023-10-13T12:28:04;5.60;;;2.47;;
15049;SDS011;7622;42.724;23.250;2023-10-13T12:31:04;3.30;;;3.00;;
15049;SDS011;7622;42.724;23.250;2023-10-13T12:33:56;6.03;;;3.42;;
15049;SDS011;7622;42.724;23.250;2023-10-13T12:36:51;7.97;;;3.40;;
15049;SDS011;7622;42.724;23.250;2023-10-13T12:39:51;8.55;;;4.05;;
15049;SDS011;7622;42.724;23.250;2023-10-13T12:43:02;3.72;;;3.15;;
15049;SDS011;7622;42.724;23.250;2023-10-13T12:46:07;4.28;;;3.10;;
15049;SDS011;7622;42.724;23.250;2023-10-13T12:49:11;4.30;;;2.90;;
15049;SDS011;7622;42.724;23.250;2023-10-13T12:52:14;3.97;;;3.05;;
15049;SDS011;7622;42.724;23.250;2023-10-13T12:55:04;3.55;;;3.13;;
15049;SDS011;7622;42.724;23.250;2023-10-13T12:57:55;5.95;;;3.60;;
15049;SDS011;7622;42.724;23.250;2023-10-13T13:00:43;5.85;;;3.25;;
15049;SDS011;7622;42.724;23.250;2023-10-13T13:03:34;4.20;;;3.47;;
15049;SDS011;7622;42.724;23.250;2023-10-13T13:06:22;6.40;;;3.53;;
15049;SDS011;7622;42.724;23.250;2023-10-13T13:09:11;5.75;;;3.40;;
15049;SDS011;7622;42.724;23.250;2023-10-13T13:11:58;3.50;;;3.15;;
15049;SDS011;7622;42.724;23.250;2023-10-13T13:14:45;6.32;;;3.35;;
15049;SDS011;7622;42.724;23.250;2023-10-13T13:17:33;5.10;;;2.83;;
15049;SDS011;7622;42.724;23.250;2023-10-13T13:20:21;6.13;;;3.83;;
15049;SDS011;7622;42.724;23.250;2023-10-13T13:23:13;32.92;;;5.93;;
15049;SDS011;7622;42.724;23.250;2023-10-13T13:26:00;8.45;;;3.38;;
15049;SDS011;7622;42.724;23.250;2023-10-13T13:28:47;8.30;;;3.38;;
15049;SDS011;7622;42.724;23.250;2023-10-13T13:31:36;7.60;;;2.97;;
15049;SDS011;7622;42.724;23.250;2023-10-13T13:34:28;5.90;;;3.15;;
15049;SDS011;7622;42.724;23.250;2023-10-13T13:37:15;6.85;;;3.40;;
15049;SDS011;7622;42.724;23.250;2023-10-13T13:40:03;8.05;;;3.25;;
15049;SDS011;7622;42.724;23.250;2023-10-13T13:43:00;8.18;;;3.40;;
15049;SDS011;7622;42.724;23.250;2023-10-13T13:45:47;6.35;;;3.15;;
15049;SDS011;7622;42.724;23.250;2023-10-13T13:48:34;8.95;;;3.83;;
15049;SDS011;7622;42.724;23.250;2023-10-13T13:51:23;8.35;;;3.60;;
15049;SDS011;7622;42.724;23.250;2023-10-13T13:54:13;4.50;;;3.28;;
15049;SDS011;7622;42.724;23.250;2023-10-13T13:57:00;4.25;;;3.20;;
15049;SDS011;7622;42.724;23.250;2023-10-13T13:59:48;4.07;;;3.20;;
15049;SDS011;7622;42.724;23.250;2023-10-13T14:02:35;8.90;;;3.40;;
15049;SDS011;7622;42.724;23.250;2023-10-13T14:05:22;5.43;;;3.38;;
15049;SDS011;7622;42.724;23.250;2023-10-13T14:08:11;3.97;;;2.80;;
15049;SDS011;7622;42.724;23.250;2023-10-13T14:11:00;7.88;;;3.17;;
15049;SDS011;7622;42.724;23.250;2023-10-13T14:14:05;3.40;;;2.80;;
15049;SDS011;7622;42.724;23.250;2023-10-13T14:16:57;5.28;;;3.40;;
15049;SDS011;7622;42.724;23.250;2023-10-13T14:19:52;6.78;;;2.88;;
15049;SDS011;7622;42.724;23.250;2023-10-13T14:22:40;5.88;;;2.78;;
15049;SDS011;7622;42.724;23.250;2023-10-13T14:25:28;4.65;;;2.75;;
15049;SDS011;7622;42.724;23.250;2023-10-13T14:28:22;7.03;;;3.35;;
15049;SDS011;7622;42.724;23.250;2023-10-13T14:31:18;6.60;;;4.20;;
15049;SDS011;7622;42.724;23.250;2023-10-13T14:34:05;7.00;;;3.10;;
15049;SDS011;7622;42.724;23.250;2023-10-13T14:36:52;6.22;;;3.22;;
15049;SDS011;7622;42.724;23.250;2023-10-13T14:39:40;5.47;;;3.42;;
15049;SDS011;7622;42.724;23.250;2023-10-13T14:42:28;6.68;;;3.80;;
15049;SDS011;7622;42.724;23.250;2023-10-13T14:45:20;11.33;;;3.97;;
15049;SDS011;7622;42.724;23.250;2023-10-13T14:48:07;11.63;;;4.37;;
15049;SDS011;7622;42.724;23.250;2023-10-13T14:50:57;5.93;;;3.77;;
15049;SDS011;7622;42.724;23.250;2023-10-13T14:53:53;4.73;;;3.30;;
15049;SDS011;7622;42.724;23.250;2023-10-13T14:56:42;8.53;;;3.63;;
15049;SDS011;7622;42.724;23.250;2023-10-13T14:59:30;5.47;;;3.77;;
15049;SDS011;7622;42.724;23.250;2023-10-13T15:02:23;8.93;;;4.00;;
15049;SDS011;7622;42.724;23.250;2023-10-13T15:05:10;7.83;;;4.13;;
15049;SDS011;7622;42.724;23.250;2023-10-13T15:08:02;5.33;;;3.33;;
15049;SDS011;7622;42.724;23.250;2023-10-13T15:10:51;6.47;;;3.87;;
15049;SDS011;7622;42.724;23.250;2023-10-13T15:13:39;9.90;;;4.20;;
15049;SDS011;7622;42.724;23.250;2023-10-13T15:16:28;7.77;;;4.37;;
15049;SDS011;7622;42.724;23.250;2023-10-13T15:19:15;11.87;;;4.33;;
15049;SDS011;7622;42.724;23.250;2023-10-13T15:22:02;5.30;;;4.00;;
15049;SDS011;7622;42.724;23.250;2023-10-13T15:24:51;5.70;;;4.23;;
15049;SDS011;7622;42.724;23.250;2023-10-13T15:27:56;7.77;;;3.83;;
15049;SDS011;7622;42.724;23.250;2023-10-13T15:30:47;6.60;;;4.10;;
15049;SDS011;7622;42.724;23.250;2023-10-13T15:33:43;8.10;;;3.57;;
15049;SDS011;7622;42.724;23.250;2023-10-13T15:36:39;7.23;;;3.67;;
15049;SDS011;7622;42.724;23.250;2023-10-13T15:39:28;9.47;;;3.57;;
15049;SDS011;7622;42.724;23.250;2023-10-13T15:42:17;5.90;;;3.60;;
15049;SDS011;7622;42.724;23.250;2023-10-13T15:45:06;7.03;;;3.70;;
15049;SDS011;7622;42.724;23.250;2023-10-13T15:48:02;9.47;;;4.27;;
15049;SDS011;7622;42.724;23.250;2023-10-13T15:50:51;7.97;;;3.90;;
15049;SDS011;7622;42.724;23.250;2023-10-13T15:53:38;4.80;;;3.63;;
15049;SDS011;7622;42.724;23.250;2023-10-13T15:56:25;10.17;;;4.83;;
15049;SDS011;7622;42.724;23.250;2023-10-13T15:59:12;12.30;;;4.30;;
15049;SDS011;7622;42.724;23.250;2023-10-13T16:01:59;11.27;;;3.93;;
15049;SDS011;7622;42.724;23.250;2023-10-13T16:04:46;7.97;;;4.30;;
15049;SDS011;7622;42.724;23.250;2023-10-13T16:07:34;13.40;;;3.63;;
15049;SDS011;7622;42.724;23.250;2023-10-13T16:10:23;10.57;;;4.10;;
15049;SDS011;7622;42.724;23.250;2023-10-13T16:13:12;9.47;;;3.70;;
15049;SDS011;7622;42.724;23.250;2023-10-13T16:16:01;8.63;;;3.83;;
15049;SDS011;7622;42.724;23.250;2023-10-13T16:18:49;8.83;;;3.70;;
15049;SDS011;7622;42.724;23.250;2023-10-13T16:21:36;10.57;;;3.87;;
15049;SDS011;7622;42.724;23.250;2023-10-13T16:24:26;9.73;;;4.33;;
15049;SDS011;7622;42.724;23.250;2023-10-13T16:27:13;9.60;;;4.30;;
15049;SDS011;7622;42.724;23.250;2023-10-13T16:30:00;10.80;;;4.90;;
15049;SDS011;7622;42.724;23.250;2023-10-13T16:32:48;12.67;;;5.27;;
15049;SDS011;7622;42.724;23.250;2023-10-13T16:35:35;12.07;;;6.03;;
15049;SDS011;7622;42.724;23.250;2023-10-13T16:38:22;11.47;;;6.37;;
15049;SDS011;7622;42.724;23.250;2023-10-13T16:41:11;20.30;;;7.37;;
15049;SDS011;7622;42.724;23.250;2023-10-13T16:43:59;16.70;;;7.17;;
15049;SDS011;7622;42.724;23.250;2023-10-13T16:46:52;16.50;;;7.80;;
15049;SDS011;7622;42.724;23.250;2023-10-13T16:49:42;24.87;;;7.90;;
15049;SDS011;7622;42.724;23.250;2023-10-13T16:52:30;13.23;;;7.20;;
15049;SDS011;7622;42.724;23.250;2023-10-13T16:55:21;14.40;;;7.43;;
15049;SDS011;7622;42.724;23.250;2023-10-13T16:58:12;18.10;;;6.83;;
15049;SDS011;7622;42.724;23.250;2023-10-13T17:00:59;22.53;;;8.20;;
15049;SDS011;7622;42.724;23.250;2023-10-13T17:03:49;13.93;;;7.00;;
15049;SDS011;7622;42.724;23.250;2023-10-13T17:06:37;26.77;;;8.17;;
15049;SDS011;7622;42.724;23.250;2023-10-13T17:09:24;13.13;;;7.13;;
15049;SDS011;7622;42.724;23.250;2023-10-13T17:12:11;21.67;;;7.63;;